Emporia, KS

1:53 PM CDT on September 19, 2014 (GMT -0500)
Timmerman School Area | Change Station
CLOSE
Current Station
Personal Weather Station
Location: Emporia, KS
Elevation: 1214 ft
Nearby Weather Stations
4.0 Earthquake: Medford, Oklahoma (17 hours ago)  

Elev 1214 ft 38.43 °N, 96.22 °W | Updated 7 minutes ago

Mostly Cloudy
Mostly Cloudy
75.2 °F
Feels Like 76 °F
N
5.1
Wind Variable Wind from South
Gusts 7.4 mph

Today
High -- | Low -- °F
--% Chance of Precip.
Yesterday
High -- | Low -- °F
Precip. -- in
7:09 AM 7:26 PM
Waning Crescent, 17% visible
Pressure 30.00 in
Visibility 9.0 miles
Clouds Scattered Clouds 1200 ft
Heat Index 76 °F
Dew Point 69 °F
Humidity 81%
Rainfall 0.00 in
Snow Depth Not available.
UV 7 out of 12
Pollen 6.00 out of 12
Air Quality Not available.
Flu Activity Not available.
SPECI KEMP 191838Z AUTO 16012KT 9SM SCT012 24/20 A3000 RMK AO2 T02390200

More Conditions Fewer Conditions

Pressure 30.00 in
Visibility 9.0 miles
Clouds Scattered Clouds 1200 ft
Heat Index 76 °F
Dew Point 69 °F
Humidity 81%
Rainfall 0.00 in
Snow Depth Not available.
UV 7 out of 12
Pollen 6.00 out of 12
Air Quality Not available.
Flu Activity Not available.
SPECI KEMP 191838Z AUTO 16012KT 9SM SCT012 24/20 A3000 RMK AO2 T02390200

More Conditions Fewer Conditions

10-Day Weather Forecast

Almanac

Astronomy

Sep. 19, 2014 Rise Set
Actual Time 7:09 AM CDT 7:26 PM CDT
Civil Twilight 6:43 AM CDT 7:52 PM CDT
Nautical Twilight 6:12 AM CDT 8:23 PM CDT
Astronomical Twilight 5:40 AM CDT 8:55 PM CDT
Moon 2:58 AM CDT 4:53 PM CDT
Length of Visible Light 13h 09m
Length of Day
12h 16m
Tomorrow will be 2m 28s shorter.
Waning Crescent, 17% of the Moon is Illuminated
Today
Waning Crescent
Sep 24
New
Oct 1
First Quarter
Oct 8
Full
Oct 15
Last Quarter

Today's Extremes

State Highs State Lows

Community

WunderPhotos

Upload Photos

1,754,680 photos uploaded!

WunderBlogs® & News

Nearby

Snow Depth

Station Depth Elevation
No new snow has been reported.

Earthquake Activity

City Distance Mag. Time & Date
Cherokee, Oklahoma 155 miles 2.8 10:11 PM CDT
2014-09-18
Medford, Oklahoma 148 miles 4.0 8:31 PM CDT
2014-09-18
Medford, Oklahoma 148 miles 3.0 5:28 AM CDT
2014-09-18
Cherokee, Oklahoma 154 miles 2.7 2:05 PM CDT
2014-09-17
Minimum magnitude displayed is 2.5.

Coastal Water Temperatures

Place Temperature
No Stations Reporting

Nearby Weather Stations